Terminal Aerodrome Forecast
Issued by NWS

Home | Current Version | Previous Version | Text Only | Print | Product List | Glossary On
Versions: 1 2 3 4 5 6 7 8 9 10 11 12 13 14 15 16 17 18 19 20 21 22 23 24 25 26 27 28 29 30 31 32 33 34 35
000
FTUS42 KCAE 221733
TAFDNL
TAF
KDNL 221733Z 2218/2318 18008KT P6SM VCTS SCT015CB BKN050
      TEMPO 2218/2222 5SM SHRA BKN030
     FM222300 16004KT P6SM SCT070 BKN150
     FM230700 16004KT 6SM BR OVC015
     FM230900 15003KT 2SM BR OVC003
     FM231400 22005KT P6SM BKN010
     FM231600 21006KT P6SM VCSH SCT020 BKN035=

USA.gov is the U.S. government's official web portal to all federal, state and local government web resources and services.